createdAt,value
2018-07-12T00:00:56.957Z,18.33
2018-07-12T00:03:29.214Z,18.30
2018-07-12T00:06:01.736Z,18.27
2018-07-12T00:08:33.995Z,18.23
2018-07-12T00:11:07.115Z,18.20
2018-07-12T00:13:39.368Z,18.15
2018-07-12T00:16:11.640Z,18.12
2018-07-12T00:18:43.921Z,18.09
2018-07-12T00:21:16.192Z,18.03
2018-07-12T00:23:48.442Z,17.99
2018-07-12T00:26:20.763Z,17.92
2018-07-12T00:28:53.017Z,17.90
2018-07-12T00:31:25.313Z,17.89
2018-07-12T00:33:57.584Z,17.85
2018-07-12T00:36:29.848Z,17.82
2018-07-12T00:39:02.125Z,17.74
2018-07-12T00:41:34.411Z,17.71
2018-07-12T00:44:06.655Z,17.68
2018-07-12T00:46:38.920Z,17.66
2018-07-12T00:49:11.183Z,17.68
2018-07-12T00:51:43.455Z,17.67
2018-07-12T00:54:15.749Z,17.64
2018-07-12T00:56:48.014Z,17.63
2018-07-12T00:59:20.357Z,17.63
2018-07-12T01:01:52.612Z,17.61
2018-07-12T01:04:24.847Z,17.61
2018-07-12T01:06:57.113Z,17.61
2018-07-12T01:09:29.353Z,17.61
2018-07-12T01:12:01.640Z,17.62
2018-07-12T01:14:33.895Z,17.62
2018-07-12T01:17:06.163Z,17.62
2018-07-12T01:19:38.416Z,17.61
2018-07-12T01:22:10.680Z,17.61
2018-07-12T01:24:42.933Z,17.60
2018-07-12T01:27:15.218Z,17.61
2018-07-12T01:29:47.468Z,17.58
2018-07-12T01:32:19.801Z,17.57
2018-07-12T01:34:52.048Z,17.58
2018-07-12T01:37:24.309Z,17.58
2018-07-12T01:39:56.553Z,17.57
2018-07-12T01:42:28.821Z,17.56
2018-07-12T01:45:01.060Z,17.55
2018-07-12T01:47:33.339Z,17.55
2018-07-12T01:50:05.603Z,17.52
2018-07-12T01:52:37.876Z,17.51
2018-07-12T01:55:10.129Z,17.45
2018-07-12T01:57:42.442Z,17.43
2018-07-12T02:00:14.703Z,17.40
2018-07-12T02:02:46.986Z,17.39
2018-07-12T02:05:19.276Z,17.34
2018-07-12T02:07:51.563Z,17.31
2018-07-12T02:10:23.819Z,17.29
2018-07-12T02:12:56.131Z,17.26
2018-07-12T02:15:28.914Z,17.23
2018-07-12T02:18:01.192Z,17.24
2018-07-12T02:20:33.441Z,17.25
2018-07-12T02:23:05.705Z,17.24
2018-07-12T02:25:37.948Z,17.25
2018-07-12T02:28:10.236Z,17.26
2018-07-12T02:30:42.511Z,17.25
2018-07-12T02:33:14.783Z,17.26
2018-07-12T02:35:47.084Z,17.27
2018-07-12T02:38:19.359Z,17.27
2018-07-12T02:40:51.610Z,17.26
2018-07-12T02:43:23.912Z,17.25
2018-07-12T02:45:56.189Z,17.25
2018-07-12T02:48:28.507Z,17.26
2018-07-12T02:51:00.744Z,17.28
2018-07-12T02:53:33.025Z,17.28
2018-07-12T02:56:05.283Z,17.29
2018-07-12T02:58:37.581Z,17.31
2018-07-12T03:01:09.833Z,17.30
2018-07-12T03:03:42.134Z,17.31
2018-07-12T03:06:14.388Z,17.30
2018-07-12T03:08:46.662Z,17.31
2018-07-12T03:11:18.912Z,17.32
2018-07-12T03:13:51.468Z,17.32
2018-07-12T03:16:23.712Z,17.31
2018-07-12T03:18:55.988Z,17.28
2018-07-12T03:21:28.344Z,17.26
2018-07-12T03:24:00.616Z,17.25
2018-07-12T03:26:32.893Z,17.27
2018-07-12T03:29:05.179Z,17.28
2018-07-12T03:31:37.431Z,17.28
2018-07-12T03:34:09.701Z,17.27
2018-07-12T03:36:41.945Z,17.27
2018-07-12T03:39:14.222Z,17.30
2018-07-12T03:41:46.467Z,17.33
2018-07-12T03:44:18.737Z,17.36
2018-07-12T03:46:51.012Z,17.37
2018-07-12T03:49:23.306Z,17.39
2018-07-12T03:51:55.572Z,17.43
2018-07-12T03:54:27.849Z,17.48
2018-07-12T03:57:00.096Z,17.49
2018-07-12T03:59:32.387Z,17.52
2018-07-12T04:02:04.956Z,17.54
2018-07-12T04:04:37.234Z,17.53
2018-07-12T04:07:09.509Z,17.56
2018-07-12T04:09:41.821Z,17.59
2018-07-12T04:12:14.071Z,17.63
2018-07-12T04:14:46.364Z,17.65
2018-07-12T04:17:24.679Z,17.69
2018-07-12T04:19:57.887Z,17.72
2018-07-12T04:22:31.271Z,17.72
2018-07-12T04:25:03.555Z,17.76
2018-07-12T04:27:35.811Z,17.80
2018-07-12T04:30:08.079Z,17.84
2018-07-12T04:32:40.321Z,17.90
2018-07-12T04:35:12.645Z,17.98
2018-07-12T04:37:44.910Z,18.06
2018-07-12T04:40:17.188Z,18.13
2018-07-12T04:42:49.457Z,18.19
2018-07-12T04:45:21.725Z,18.23
2018-07-12T04:47:54.163Z,18.29
2018-07-12T04:50:26.432Z,18.30
2018-07-12T04:52:58.712Z,18.35
2018-07-12T04:55:30.988Z,18.42
2018-07-12T04:58:03.332Z,18.47
2018-07-12T05:00:35.592Z,18.52
2018-07-12T05:03:07.861Z,18.57
2018-07-12T05:05:40.102Z,18.63
2018-07-12T05:08:12.443Z,18.77
2018-07-12T05:10:44.692Z,18.92
2018-07-12T05:13:16.973Z,19.16
2018-07-12T05:15:49.239Z,19.38
2018-07-12T05:18:21.500Z,19.53
2018-07-12T05:20:53.754Z,19.67
2018-07-12T05:23:26.026Z,19.81
2018-07-12T05:25:58.283Z,19.92
2018-07-12T05:28:30.551Z,20.05
2018-07-12T05:31:02.830Z,20.26
2018-07-12T05:33:35.129Z,20.33
2018-07-12T05:36:15.248Z,20.39
2018-07-12T05:38:48.622Z,20.40
2018-07-12T05:41:22.032Z,20.32
2018-07-12T05:43:55.433Z,20.34
2018-07-12T05:46:28.811Z,20.34
2018-07-12T05:49:02.230Z,20.33
2018-07-12T05:51:35.620Z,20.35
2018-07-12T05:54:09.024Z,20.54
2018-07-12T05:56:42.566Z,20.75
2018-07-12T05:59:16.128Z,20.88
2018-07-12T06:02:00.981Z,20.95
2018-07-12T06:04:34.379Z,21.08
2018-07-12T06:07:07.772Z,21.17
2018-07-12T06:09:41.204Z,21.17
2018-07-12T06:12:14.609Z,21.18
2018-07-12T06:14:48.000Z,21.28
2018-07-12T06:17:21.346Z,21.34
2018-07-12T06:19:54.733Z,21.50
2018-07-12T06:22:28.115Z,21.53
2018-07-12T06:25:01.480Z,21.59
2018-07-12T06:27:34.932Z,21.69
2018-07-12T06:30:08.357Z,21.77
2018-07-12T06:32:41.751Z,21.75
2018-07-12T06:35:15.293Z,21.67
2018-07-12T06:37:48.665Z,21.55
2018-07-12T06:40:22.069Z,21.64
2018-07-12T06:42:55.422Z,21.88
2018-07-12T06:45:28.812Z,21.88
2018-07-12T06:48:02.163Z,22.04
2018-07-12T06:50:35.520Z,22.22
2018-07-12T06:53:08.897Z,22.29
2018-07-12T06:55:42.303Z,22.28
2018-07-12T07:00:54.336Z,22.63
2018-07-12T07:03:27.720Z,22.73
2018-07-12T07:06:01.121Z,22.89
2018-07-12T07:08:34.501Z,23.05
2018-07-12T07:11:08.092Z,23.13
2018-07-12T07:13:41.500Z,23.10
2018-07-12T07:16:14.928Z,23.15
2018-07-12T07:18:48.328Z,23.29
2018-07-12T07:21:21.743Z,23.09
2018-07-12T07:23:55.197Z,23.06
2018-07-12T07:26:28.639Z,23.23
2018-07-12T07:29:02.059Z,23.12
2018-07-12T07:31:35.470Z,23.01
2018-07-12T07:34:08.872Z,22.92
2018-07-12T07:36:42.297Z,22.85
2018-07-12T07:39:16.184Z,22.81
2018-07-12T07:41:49.607Z,22.75
2018-07-12T07:44:22.987Z,22.96
2018-07-12T07:46:56.384Z,23.25
2018-07-12T07:49:29.783Z,23.41
2018-07-12T07:52:03.176Z,23.62
2018-07-12T07:54:36.590Z,23.48
2018-07-12T07:57:10.205Z,23.19
2018-07-12T07:59:43.624Z,23.05
2018-07-12T08:02:17.021Z,22.86
2018-07-12T08:04:50.536Z,22.72
2018-07-12T08:07:23.933Z,22.82
2018-07-12T08:09:57.345Z,22.81
2018-07-12T08:12:30.752Z,22.76
2018-07-12T08:15:04.607Z,22.95
2018-07-12T08:17:38.160Z,23.27
2018-07-12T08:20:11.584Z,23.39
2018-07-12T08:22:44.957Z,23.42
2018-07-12T08:25:18.319Z,23.33
2018-07-12T08:28:02.893Z,23.27
2018-07-12T08:30:36.298Z,23.21
2018-07-12T08:33:09.642Z,23.22
2018-07-12T08:35:43.047Z,23.23
2018-07-12T08:38:16.744Z,23.12
2018-07-12T08:40:50.196Z,23.27
2018-07-12T08:43:23.579Z,23.44
2018-07-12T08:45:56.982Z,23.61
2018-07-12T08:48:30.413Z,23.82
2018-07-12T08:51:03.754Z,24.02
2018-07-12T08:53:37.116Z,24.12
2018-07-12T08:56:10.543Z,24.14
2018-07-12T08:58:43.917Z,24.16
2018-07-12T09:01:17.301Z,24.16
2018-07-12T09:03:50.656Z,24.20
2018-07-12T09:06:24.019Z,24.13
2018-07-12T09:08:57.383Z,24.09
2018-07-12T09:11:30.820Z,24.14
2018-07-12T09:14:04.237Z,24.15
2018-07-12T09:16:37.601Z,24.28
2018-07-12T09:19:10.952Z,24.46
2018-07-12T09:21:44.426Z,24.59
2018-07-12T09:24:17.826Z,24.50
2018-07-12T09:26:51.221Z,24.40
2018-07-12T09:29:24.568Z,24.52
2018-07-12T09:31:57.944Z,24.78
2018-07-12T09:34:31.367Z,24.95
2018-07-12T09:37:04.820Z,25.04
2018-07-12T09:39:38.168Z,25.10
2018-07-12T09:42:11.557Z,25.14
2018-07-12T09:44:44.963Z,25.25
2018-07-12T09:47:18.416Z,25.30
2018-07-12T09:49:51.809Z,25.42
2018-07-12T09:52:30.434Z,25.56
2018-07-12T09:55:04.131Z,25.66
2018-07-12T09:57:48.716Z,25.84
2018-07-12T10:00:26.276Z,25.93
2018-07-12T10:03:04.858Z,25.93
2018-07-12T10:05:43.728Z,25.97
2018-07-12T10:08:22.179Z,26.11
2018-07-12T10:11:00.842Z,26.32
2018-07-12T10:13:39.572Z,26.53
2018-07-12T10:16:18.336Z,26.66
2018-07-12T10:18:51.747Z,26.84
2018-07-12T10:21:25.192Z,26.76
2018-07-12T10:23:58.569Z,26.81
2018-07-12T10:26:31.948Z,26.96
2018-07-12T10:29:05.309Z,26.99
2018-07-12T10:31:38.702Z,26.96
2018-07-12T10:34:12.100Z,26.87
2018-07-12T10:36:45.465Z,26.86
2018-07-12T10:39:18.826Z,26.93
2018-07-12T10:41:52.297Z,27.05
2018-07-12T10:44:25.698Z,26.93
2018-07-12T10:46:59.054Z,27.07
2018-07-12T10:49:32.415Z,26.87
2018-07-12T10:52:05.864Z,26.46
2018-07-12T10:54:39.212Z,26.57
2018-07-12T10:57:12.600Z,26.84
2018-07-12T10:59:45.970Z,26.88
2018-07-12T11:02:19.381Z,27.01
2018-07-12T11:04:52.735Z,26.93
2018-07-12T11:07:26.119Z,26.99
2018-07-12T11:09:59.473Z,27.02
2018-07-12T11:12:32.857Z,27.11
2018-07-12T11:15:06.231Z,26.93
2018-07-12T11:17:39.599Z,26.99
2018-07-12T11:20:12.984Z,27.21
2018-07-12T11:22:46.354Z,27.36
2018-07-12T11:25:19.706Z,27.63
2018-07-12T11:27:53.102Z,28.13
2018-07-12T11:30:26.460Z,28.30
2018-07-12T11:32:59.898Z,28.28
2018-07-12T11:35:33.248Z,28.22
2018-07-12T11:38:06.628Z,28.13
2018-07-12T11:40:39.995Z,28.01
2018-07-12T11:43:13.399Z,27.89
2018-07-12T11:45:46.765Z,27.90
2018-07-12T11:48:20.172Z,27.89
2018-07-12T11:50:53.572Z,27.99
2018-07-12T11:53:27.524Z,28.04
2018-07-12T11:56:00.910Z,27.98
2018-07-12T11:58:34.303Z,27.66
2018-07-12T12:01:07.683Z,27.52
2018-07-12T12:03:41.104Z,27.51
2018-07-12T12:06:14.494Z,27.60
2018-07-12T12:08:47.888Z,27.51
2018-07-12T12:11:21.258Z,27.50
2018-07-12T12:13:54.686Z,27.54
2018-07-12T12:16:28.057Z,27.62
2018-07-12T12:19:01.457Z,27.77
2018-07-12T12:21:34.824Z,27.96
2018-07-12T12:24:08.265Z,28.05
2018-07-12T12:26:41.677Z,28.00
2018-07-12T12:29:15.043Z,27.82
2018-07-12T12:31:48.416Z,27.57
2018-07-12T12:34:21.886Z,27.31
2018-07-12T12:36:55.280Z,27.18
2018-07-12T12:39:28.660Z,27.34
2018-07-12T12:42:02.010Z,27.57
2018-07-12T12:44:35.368Z,27.67
2018-07-12T12:47:08.729Z,27.78
2018-07-12T12:49:42.150Z,27.92
2018-07-12T12:52:15.811Z,27.90
2018-07-12T12:54:49.192Z,27.85
2018-07-12T12:57:22.588Z,27.89
2018-07-12T12:59:55.947Z,27.95
2018-07-12T13:02:29.300Z,27.96
2018-07-12T13:05:02.687Z,27.91
2018-07-12T13:07:36.059Z,27.80
2018-07-12T13:10:09.471Z,27.65
2018-07-12T13:12:42.852Z,27.45
2018-07-12T13:15:16.243Z,27.28
2018-07-12T13:17:49.626Z,27.16
2018-07-12T13:20:23.020Z,27.03
2018-07-12T13:22:56.421Z,26.99
2018-07-12T13:25:29.903Z,26.94
2018-07-12T13:28:03.241Z,26.91
2018-07-12T13:30:36.655Z,27.05
2018-07-12T13:33:10.020Z,27.16
2018-07-12T13:35:43.379Z,27.18
2018-07-12T13:38:16.733Z,26.87
2018-07-12T13:40:50.127Z,26.63
2018-07-12T13:43:23.486Z,26.38
2018-07-12T13:45:56.868Z,26.12
2018-07-12T13:48:30.220Z,25.90
2018-07-12T13:51:03.631Z,25.69
2018-07-12T13:53:36.987Z,25.62
2018-07-12T13:56:10.385Z,25.44
2018-07-12T13:58:43.735Z,25.41
2018-07-12T14:01:17.114Z,25.50
2018-07-12T14:03:50.492Z,25.50
2018-07-12T14:06:24.066Z,25.62
2018-07-12T14:08:57.459Z,25.71
2018-07-12T14:11:30.822Z,25.77
2018-07-12T14:14:04.388Z,25.95
2018-07-12T14:16:37.764Z,26.17
2018-07-12T14:19:11.573Z,26.09
2018-07-12T14:21:44.943Z,25.87
2018-07-12T14:24:18.332Z,25.82
2018-07-12T14:26:51.743Z,25.76
2018-07-12T14:29:25.122Z,25.79
2018-07-12T14:31:58.498Z,25.88
2018-07-12T14:34:31.893Z,25.93
2018-07-12T14:37:05.315Z,26.00
2018-07-12T14:39:38.709Z,26.09
2018-07-12T14:42:12.457Z,26.21
2018-07-12T14:44:45.855Z,26.26
2018-07-12T14:47:19.210Z,26.24
2018-07-12T14:49:52.582Z,26.18
2018-07-12T14:52:25.951Z,26.23
2018-07-12T14:54:59.344Z,26.28
2018-07-12T14:57:32.695Z,26.35
2018-07-12T15:00:06.093Z,26.41
2018-07-12T15:02:39.473Z,26.51
2018-07-12T15:05:12.867Z,26.62
2018-07-12T15:07:46.251Z,26.62
2018-07-12T15:10:19.679Z,26.68
2018-07-12T15:12:53.056Z,26.76
2018-07-12T15:15:26.473Z,26.82
2018-07-12T15:18:00.114Z,26.89
2018-07-12T15:20:33.735Z,26.93
2018-07-12T15:23:07.072Z,27.03
2018-07-12T15:25:40.449Z,27.11
2018-07-12T15:28:13.805Z,27.22
2018-07-12T15:30:47.201Z,27.28
2018-07-12T15:33:20.581Z,27.37
2018-07-12T15:35:53.944Z,27.32
2018-07-12T15:38:27.293Z,27.28
2018-07-12T15:41:00.666Z,27.25
2018-07-12T15:43:34.029Z,27.17
2018-07-12T15:46:07.444Z,27.19
2018-07-12T15:48:40.818Z,27.12
2018-07-12T15:51:14.188Z,27.18
2018-07-12T15:53:47.533Z,27.16
2018-07-12T15:56:20.926Z,27.16
2018-07-12T15:58:54.297Z,27.21
2018-07-12T16:01:27.676Z,27.21
2018-07-12T16:04:01.053Z,27.13
2018-07-12T16:06:34.440Z,27.12
2018-07-12T16:09:08.648Z,27.03
2018-07-12T16:11:42.067Z,27.00
2018-07-12T16:14:15.462Z,26.99
2018-07-12T16:16:48.858Z,27.01
2018-07-12T16:19:22.276Z,27.00
2018-07-12T16:21:55.681Z,26.95
2018-07-12T16:24:29.046Z,26.89
2018-07-12T16:27:02.448Z,26.84
2018-07-12T16:29:35.801Z,26.82
2018-07-12T16:32:09.180Z,26.82
2018-07-12T16:34:42.540Z,26.85
2018-07-12T16:37:16.090Z,26.93
2018-07-12T16:39:49.333Z,27.00
2018-07-12T16:42:22.731Z,27.04
2018-07-12T16:44:56.104Z,27.00
2018-07-12T16:47:29.483Z,26.93
2018-07-12T16:50:02.852Z,26.88
2018-07-12T16:52:36.415Z,26.87
2018-07-12T16:55:09.814Z,26.91
2018-07-12T16:57:43.213Z,26.92
2018-07-12T17:00:19.025Z,27.02
2018-07-12T17:02:52.443Z,27.21
2018-07-12T17:05:25.813Z,27.54
2018-07-12T17:07:59.234Z,27.56
2018-07-12T17:10:32.592Z,27.36
2018-07-12T17:13:05.959Z,27.31
2018-07-12T17:15:39.378Z,27.60
2018-07-12T17:18:13.381Z,27.87
2018-07-12T17:20:46.747Z,27.86
2018-07-12T17:23:20.154Z,27.58
2018-07-12T17:25:53.498Z,27.31
2018-07-12T17:28:26.895Z,27.08
2018-07-12T17:31:00.315Z,26.93
2018-07-12T17:33:33.740Z,26.82
2018-07-12T17:36:07.176Z,26.77
2018-07-12T17:38:40.554Z,26.73
2018-07-12T17:41:14.023Z,26.72
2018-07-12T17:43:47.334Z,26.70
2018-07-12T17:46:20.734Z,26.71
2018-07-12T17:48:54.092Z,26.65
2018-07-12T17:51:27.489Z,26.62
2018-07-12T17:54:00.854Z,26.62
2018-07-12T17:56:34.263Z,26.58
2018-07-12T17:59:07.643Z,26.52
2018-07-12T18:01:41.059Z,26.45
2018-07-12T18:04:14.417Z,26.32
2018-07-12T18:06:47.838Z,26.18
2018-07-12T18:09:21.229Z,26.15
2018-07-12T18:11:54.624Z,26.05
2018-07-12T18:14:28.093Z,25.96
2018-07-12T18:17:01.480Z,25.90
2018-07-12T18:19:34.860Z,25.85
2018-07-12T18:22:08.334Z,25.75
2018-07-12T18:24:41.854Z,25.66
2018-07-12T18:27:15.319Z,25.66
2018-07-12T18:29:48.740Z,25.64
2018-07-12T18:32:22.160Z,25.55
2018-07-12T18:34:55.664Z,25.50
2018-07-12T18:37:29.645Z,25.49
2018-07-12T18:40:03.043Z,25.45
2018-07-12T18:42:36.448Z,25.40
2018-07-12T18:45:09.822Z,25.36
2018-07-12T18:47:43.219Z,25.34
2018-07-12T18:50:16.584Z,25.24
2018-07-12T18:52:50.328Z,25.19
2018-07-12T18:55:23.685Z,25.16
2018-07-12T18:57:57.058Z,25.16
2018-07-12T19:00:30.417Z,25.08
2018-07-12T19:03:03.816Z,25.04
2018-07-12T19:05:37.172Z,24.96
2018-07-12T19:08:10.537Z,24.84
2018-07-12T19:10:43.963Z,24.72
2018-07-12T19:13:17.357Z,24.62
2018-07-12T19:15:50.762Z,24.48
2018-07-12T19:18:24.149Z,24.34
2018-07-12T19:20:57.591Z,24.18
2018-07-12T19:23:30.900Z,24.05
2018-07-12T19:26:04.292Z,24.00
2018-07-12T19:28:37.672Z,23.98
2018-07-12T19:31:11.037Z,23.92
2018-07-12T19:33:44.410Z,23.84
2018-07-12T19:36:17.788Z,23.73
2018-07-12T19:38:51.195Z,23.64
2018-07-12T19:41:24.586Z,23.58
2018-07-12T19:43:58.147Z,23.50
2018-07-12T19:46:31.529Z,23.41
2018-07-12T19:49:04.919Z,23.37
2018-07-12T19:51:38.293Z,23.30
2018-07-12T19:54:11.674Z,23.24
2018-07-12T19:56:45.019Z,23.16
2018-07-12T19:59:18.403Z,23.04
2018-07-12T20:01:51.846Z,22.96
2018-07-12T20:04:25.247Z,22.89
2018-07-12T20:06:58.625Z,22.82
2018-07-12T20:09:33.157Z,22.73
2018-07-12T20:12:06.616Z,22.65
2018-07-12T20:14:40.041Z,22.56
2018-07-12T20:17:13.454Z,22.51
2018-07-12T20:19:46.843Z,22.45
2018-07-12T20:22:20.210Z,22.38
2018-07-12T20:24:53.780Z,22.30
2018-07-12T20:27:27.158Z,22.19
2018-07-12T20:30:00.551Z,22.10
2018-07-12T20:32:34.368Z,22.01
2018-07-12T20:35:08.113Z,21.99
2018-07-12T20:37:41.515Z,21.93
2018-07-12T20:40:14.904Z,21.91
2018-07-12T20:42:48.266Z,21.89
2018-07-12T20:45:21.719Z,21.87
2018-07-12T20:47:55.091Z,21.83
2018-07-12T20:50:28.455Z,21.75
2018-07-12T20:53:01.829Z,21.67
2018-07-12T20:55:35.746Z,21.59
2018-07-12T20:58:09.132Z,21.53
2018-07-12T21:00:42.512Z,21.50
2018-07-12T21:03:15.894Z,21.43
2018-07-12T21:05:49.934Z,21.35
2018-07-12T21:08:23.546Z,21.30
2018-07-12T21:10:56.948Z,21.28
2018-07-12T21:13:31.133Z,21.25
2018-07-12T21:16:05.120Z,21.21
2018-07-12T21:18:39.276Z,21.15
2018-07-12T21:21:13.311Z,21.07
2018-07-12T21:23:46.791Z,20.97
2018-07-12T21:26:20.108Z,20.91
2018-07-12T21:28:53.506Z,20.86
2018-07-12T21:31:26.889Z,20.78
2018-07-12T21:34:00.260Z,20.73
2018-07-12T21:36:33.626Z,20.68
2018-07-12T21:39:09.375Z,20.66
2018-07-12T21:41:42.875Z,20.64
2018-07-12T21:44:16.256Z,20.58
2018-07-12T21:46:49.650Z,20.53
2018-07-12T21:49:23.706Z,20.43
2018-07-12T21:51:57.293Z,20.35
2018-07-12T21:54:30.691Z,20.30
2018-07-12T21:57:04.059Z,20.25
2018-07-12T21:59:37.452Z,20.25
2018-07-12T22:02:10.875Z,20.22
2018-07-12T22:04:44.304Z,20.19
2018-07-12T22:07:34.644Z,20.15
2018-07-12T22:10:08.069Z,20.11
2018-07-12T22:12:41.493Z,20.07
2018-07-12T22:15:14.905Z,19.98
2018-07-12T22:17:48.316Z,19.94
2018-07-12T22:20:21.722Z,19.84
2018-07-12T22:22:55.072Z,19.77
2018-07-12T22:25:28.454Z,19.71
2018-07-12T22:28:01.820Z,19.68
2018-07-12T22:30:35.234Z,19.69
2018-07-12T22:33:08.661Z,19.67
2018-07-12T22:35:42.702Z,19.63
2018-07-12T22:38:16.058Z,19.61
2018-07-12T22:40:49.454Z,19.56
2018-07-12T22:43:22.823Z,19.53
2018-07-12T22:45:57.283Z,19.50
2018-07-12T22:48:30.869Z,19.46
2018-07-12T22:51:04.139Z,19.41
2018-07-12T22:53:37.537Z,19.35
2018-07-12T22:56:10.925Z,19.32
2018-07-12T22:58:44.285Z,19.33
2018-07-12T23:01:17.674Z,19.31
2018-07-12T23:03:51.044Z,19.27
2018-07-12T23:06:24.437Z,19.23
2018-07-12T23:08:57.805Z,19.16
2018-07-12T23:11:31.272Z,19.15
2018-07-12T23:14:04.672Z,19.04
2018-07-12T23:16:38.062Z,19.04
2018-07-12T23:19:11.442Z,19.03
2018-07-12T23:21:44.841Z,18.95
2018-07-12T23:24:18.203Z,18.88
2018-07-12T23:26:51.809Z,18.84
2018-07-12T23:29:25.212Z,18.72
2018-07-12T23:31:58.604Z,18.64
2018-07-12T23:34:31.981Z,18.57
2018-07-12T23:37:05.487Z,18.53
2018-07-12T23:39:38.876Z,18.48
2018-07-12T23:42:12.311Z,18.43
2018-07-12T23:44:45.686Z,18.37
2018-07-12T23:47:19.107Z,18.29
2018-07-12T23:49:52.554Z,18.29
2018-07-12T23:52:25.939Z,18.29
2018-07-12T23:54:59.297Z,18.29
2018-07-12T23:57:32.691Z,18.22
